Time;durP1;ratioP1;P1;durP2;ratioP2;P2;SDS_P1;SDS_P2;PMS_P1;PMS_P2;Temp;Humidity;BMP_temperature;BMP_pressure;BME280_temperature;BME280_humidity;BME280_pressure;Samples;Min_cycle;Max_cycle;Signal;HPM_P1;HPM_P2
2022/11/03 00:01:47;;;;;;;2.40;0.70;;;5.90;99.90;;;;;;4954676;29;20494;-81
2022/11/03 00:04:14;;;;;;;4.57;1.00;;;5.70;99.90;;;;;;4954858;29;20499;-86
2022/11/03 00:06:42;;;;;;;4.77;1.17;;;5.50;99.90;;;;;;4954995;29;20781;-87
2022/11/03 00:09:10;;;;;;;2.37;1.10;;;5.70;99.90;;;;;;4954856;29;20518;-86
2022/11/03 00:11:37;;;;;;;2.33;0.90;;;5.70;99.90;;;;;;4954763;29;20857;-81
2022/11/03 00:14:03;;;;;;;4.83;1.20;;;5.80;99.90;;;;;;4954355;29;20505;-84
2022/11/03 00:16:29;;;;;;;5.57;0.77;;;5.90;99.90;;;;;;4954707;29;20423;-85
2022/11/03 00:18:55;;;;;;;6.60;1.60;;;6.00;99.90;;;;;;4954758;29;20420;-83
2022/11/03 00:21:21;;;;;;;3.13;1.30;;;6.10;99.90;;;;;;4954574;29;20462;-86
2022/11/03 00:23:47;;;;;;;4.80;1.30;;;6.10;99.90;;;;;;4954699;29;20183;-85
2022/11/03 00:26:16;;;;;;;13.00;1.73;;;6.10;99.90;;;;;;4954557;29;20446;-86
2022/11/03 00:28:44;;;;;;;3.47;1.47;;;6.10;99.90;;;;;;4954195;29;20227;-85
2022/11/03 00:31:13;;;;;;;5.70;1.57;;;6.00;99.90;;;;;;4954756;29;20410;-87
2022/11/03 00:33:40;;;;;;;5.23;1.60;;;6.00;99.90;;;;;;4954477;29;20958;-86
2022/11/03 00:36:07;;;;;;;3.40;1.23;;;6.00;99.90;;;;;;4954323;29;20546;-86
2022/11/03 00:38:33;;;;;;;2.03;0.80;;;6.00;99.90;;;;;;4954500;29;20543;-83
2022/11/03 00:41:01;;;;;;;2.80;1.27;;;5.90;99.90;;;;;;4954642;29;21004;-83
2022/11/03 00:43:28;;;;;;;9.90;2.53;;;6.00;99.90;;;;;;4954639;28;20456;-83
2022/11/03 00:45:54;;;;;;;1.30;0.90;;;5.90;99.90;;;;;;4954122;29;20427;-81
2022/11/03 00:48:29;;;;;;;1.87;1.20;;;6.00;99.90;;;;;;4954679;28;20931;-81
2022/11/03 00:51:25;;;;;;;6.50;1.87;;;6.00;99.90;;;;;;4958141;29;20577;-81
2022/11/03 00:53:53;;;;;;;14.20;2.10;;;6.00;99.90;;;;;;4958200;28;20434;-86
2022/11/03 00:56:26;;;;;;;3.60;0.90;;;6.10;99.90;;;;;;4958193;29;20415;-81
2022/11/03 00:58:52;;;;;;;2.73;1.00;;;6.20;99.90;;;;;;4957892;29;20782;-86
2022/11/03 01:01:26;;;;;;;3.50;0.80;;;6.30;99.90;;;;;;4957792;29;20474;-82
2022/11/03 01:06:52;;;;;;;4.07;1.37;;;6.40;99.90;;;;;;4958247;29;20505;-81
2022/11/03 01:09:20;;;;;;;2.37;0.80;;;6.40;99.90;;;;;;4957858;29;20426;-81
2022/11/03 01:12:03;;;;;;;2.20;0.80;;;6.40;99.90;;;;;;4958018;29;20473;-81
2022/11/03 01:14:39;;;;;;;9.57;2.33;;;6.50;99.90;;;;;;4957424;29;20908;-81
2022/11/03 01:17:10;;;;;;;2.90;1.13;;;6.50;99.90;;;;;;4957660;29;20506;-86
2022/11/03 01:19:36;;;;;;;1.60;0.70;;;6.40;99.90;;;;;;4957603;29;20437;-81
2022/11/03 01:22:02;;;;;;;6.30;0.90;;;6.40;99.90;;;;;;4957647;29;20471;-80
2022/11/03 01:24:27;;;;;;;4.57;1.07;;;6.40;99.90;;;;;;4957606;29;20185;-80
2022/11/03 01:26:53;;;;;;;3.43;0.50;;;6.30;99.90;;;;;;4957603;29;20185;-85
2022/11/03 01:29:18;;;;;;;3.07;0.83;;;6.20;99.90;;;;;;4957264;28;20270;-86
2022/11/03 01:31:50;;;;;;;4.10;1.07;;;6.20;99.90;;;;;;4957652;29;20186;-82
2022/11/03 01:34:18;;;;;;;4.60;1.40;;;6.20;99.90;;;;;;4957476;29;20180;-82
2022/11/03 01:36:44;;;;;;;2.97;1.37;;;6.20;99.90;;;;;;4957322;29;20506;-86
2022/11/03 01:39:12;;;;;;;3.20;0.67;;;6.10;99.90;;;;;;4957336;29;20912;-86
2022/11/03 01:41:38;;;;;;;1.63;0.63;;;6.10;99.90;;;;;;4957202;29;20533;-82
2022/11/03 01:44:06;;;;;;;2.83;0.50;;;6.20;99.90;;;;;;4956972;29;20426;-83
2022/11/03 01:46:32;;;;;;;6.07;1.43;;;6.20;99.90;;;;;;4957390;29;20222;-81
2022/11/03 01:49:04;;;;;;;2.43;0.77;;;6.20;99.90;;;;;;4957251;29;20495;-82
2022/11/03 01:51:32;;;;;;;4.57;1.17;;;6.20;99.90;;;;;;4957076;29;20430;-80
2022/11/03 01:54:01;;;;;;;5.10;1.77;;;6.30;99.90;;;;;;4957006;29;20524;-84
2022/11/03 01:56:31;;;;;;;2.53;1.13;;;6.30;99.90;;;;;;4957040;29;20451;-85
2022/11/03 01:58:57;;;;;;;3.97;1.30;;;6.30;99.90;;;;;;4956763;29;20932;-81
2022/11/03 02:01:23;;;;;;;2.90;1.10;;;6.30;99.90;;;;;;4955765;28;20482;-81
2022/11/03 02:03:53;;;;;;;2.50;0.90;;;6.30;99.90;;;;;;4956930;29;20188;-85
2022/11/03 02:06:22;;;;;;;3.23;1.23;;;6.30;99.90;;;;;;4956963;29;20235;-82
2022/11/03 02:08:53;;;;;;;2.00;0.90;;;6.40;99.90;;;;;;4956728;29;20427;-81
2022/11/03 02:14:03;;;;;;;2.60;0.60;;;6.60;99.90;;;;;;4956412;29;20914;-83
2022/11/03 02:16:31;;;;;;;2.30;0.63;;;6.70;99.90;;;;;;4956706;29;20432;-81
2022/11/03 02:18:59;;;;;;;3.10;0.90;;;6.70;99.90;;;;;;4956670;29;20171;-81
2022/11/03 02:21:35;;;;;;;1.30;0.73;;;6.80;99.90;;;;;;4956635;29;20571;-80
2022/11/03 02:24:26;;;;;;;8.70;1.00;;;6.90;99.90;;;;;;4955328;29;20940;-80
2022/11/03 02:26:55;;;;;;;1.37;0.50;;;6.90;99.90;;;;;;4956569;29;20439;-81
2022/11/03 02:29:20;;;;;;;1.43;0.40;;;7.00;99.90;;;;;;4956348;29;20415;-81
2022/11/03 02:32:12;;;;;;;3.90;0.60;;;7.00;99.90;;;;;;4956504;29;20705;-81
2022/11/03 02:35:04;;;;;;;2.40;0.80;;;7.00;99.90;;;;;;4962225;28;20183;-85
2022/11/03 02:37:33;;;;;;;3.23;0.57;;;6.80;99.90;;;;;;4975677;28;20435;-85
2022/11/03 02:40:05;;;;;;;3.20;0.83;;;6.80;99.90;;;;;;4975738;28;20415;-81
2022/11/03 02:42:31;;;;;;;1.03;0.60;;;6.70;99.90;;;;;;4975488;28;20478;-81
2022/11/03 02:45:01;;;;;;;3.70;0.73;;;6.70;99.90;;;;;;4975152;28;20418;-81
2022/11/03 02:47:29;;;;;;;3.93;0.97;;;6.60;99.90;;;;;;4975510;28;20781;-86
2022/11/03 02:49:55;;;;;;;8.20;1.07;;;6.60;99.90;;;;;;4975420;28;20422;-81
2022/11/03 02:52:38;;;;;;;2.60;1.00;;;6.80;99.90;;;;;;4975391;28;20454;-81
2022/11/03 02:55:16;;;;;;;3.43;0.70;;;6.80;99.90;;;;;;4975358;28;20491;-85
2022/11/03 02:57:49;;;;;;;2.30;1.50;;;6.70;99.90;;;;;;4975318;28;20828;-81
2022/11/03 03:00:16;;;;;;;6.03;1.43;;;6.70;99.90;;;;;;4974885;28;20426;-80
2022/11/03 03:02:56;;;;;;;1.63;0.70;;;6.60;99.90;;;;;;4974628;28;20487;-84
2022/11/03 03:05:25;;;;;;;1.10;0.30;;;6.50;99.90;;;;;;4975134;28;20428;-80
2022/11/03 03:07:55;;;;;;;1.67;0.30;;;6.50;99.90;;;;;;4975127;28;20875;-83
2022/11/03 03:10:28;;;;;;;4.00;1.20;;;6.50;99.90;;;;;;4975118;28;20427;-80
2022/11/03 03:12:56;;;;;;;1.77;0.83;;;6.50;99.90;;;;;;4974840;28;20415;-81
2022/11/03 03:15:33;;;;;;;3.63;0.93;;;6.50;99.90;;;;;;4974717;28;20435;-83
2022/11/03 03:18:20;;;;;;;6.20;1.63;;;6.40;99.90;;;;;;4974951;28;20424;-80
2022/11/03 03:21:01;;;;;;;3.43;0.43;;;6.40;99.90;;;;;;4974781;28;20425;-82
2022/11/03 03:23:34;;;;;;;6.23;1.53;;;6.40;99.90;;;;;;4974809;28;20432;-80
2022/11/03 03:26:09;;;;;;;4.60;1.40;;;6.30;99.90;;;;;;4974834;28;20411;-83
2022/11/03 03:29:10;;;;;;;6.87;1.43;;;6.20;99.90;;;;;;4974366;28;20487;-79
2022/11/03 03:31:38;;;;;;;6.00;0.80;;;6.10;99.90;;;;;;4971473;28;20445;-82
2022/11/03 03:34:04;;;;;;;1.97;0.73;;;6.10;99.90;;;;;;4974572;28;20410;-80
2022/11/03 03:36:31;;;;;;;3.00;1.17;;;6.00;99.90;;;;;;4974533;28;20418;-80
2022/11/03 03:39:02;;;;;;;4.00;0.70;;;6.00;99.90;;;;;;4974670;28;20953;-85
2022/11/03 03:41:31;;;;;;;4.40;0.97;;;6.10;99.90;;;;;;4974443;28;20556;-82
2022/11/03 03:44:00;;;;;;;3.53;0.90;;;6.10;99.90;;;;;;4974032;28;20927;-80
2022/11/03 03:46:31;;;;;;;2.40;0.60;;;6.00;99.90;;;;;;4974428;28;20508;-84
2022/11/03 03:48:57;;;;;;;2.07;0.70;;;6.00;99.90;;;;;;4974275;28;20511;-85
2022/11/03 03:51:25;;;;;;;1.67;0.67;;;6.10;99.90;;;;;;4958296;28;20544;-80
2022/11/03 03:53:52;;;;;;;2.50;0.50;;;6.10;99.90;;;;;;4955133;28;20178;-80
2022/11/03 03:56:47;;;;;;;1.77;0.73;;;6.10;99.90;;;;;;4955392;28;20453;-81
2022/11/03 03:59:13;;;;;;;3.80;0.93;;;6.10;99.90;;;;;;4951096;29;20851;-81
2022/11/03 04:01:38;;;;;;;1.60;0.70;;;6.00;99.90;;;;;;4954884;28;20478;-81
2022/11/03 04:04:04;;;;;;;3.53;0.80;;;6.00;99.90;;;;;;4954944;28;20287;-83
2022/11/03 04:06:29;;;;;;;3.60;1.13;;;5.90;99.90;;;;;;4954914;28;20175;-81
2022/11/03 04:08:55;;;;;;;3.43;0.90;;;5.90;99.90;;;;;;4954745;28;20589;-85
2022/11/03 04:22:17;;;;;;;3.87;1.20;;;5.90;99.90;;;;;;4954861;29;20485;-85
2022/11/03 04:24:47;;;;;;;5.50;1.17;;;5.90;99.90;;;;;;4954392;28;20414;-81
2022/11/03 04:27:26;;;;;;;7.87;0.70;;;5.90;99.90;;;;;;4954869;28;20191;-81
2022/11/03 04:29:54;;;;;;;6.67;1.50;;;5.90;99.90;;;;;;4954505;28;20410;-82
2022/11/03 04:32:20;;;;;;;7.60;0.97;;;5.90;99.90;;;;;;4953528;29;20488;-81
2022/11/03 04:34:47;;;;;;;2.30;0.90;;;6.00;99.90;;;;;;4954839;28;20817;-81
2022/11/03 04:37:13;;;;;;;4.43;0.80;;;6.00;99.90;;;;;;4954720;28;20176;-81
2022/11/03 04:39:38;;;;;;;2.40;0.70;;;6.00;99.90;;;;;;4954820;28;20790;-81
2022/11/03 04:42:19;;;;;;;3.90;0.40;;;6.00;99.90;;;;;;4954584;28;20489;-81
2022/11/03 04:44:46;;;;;;;2.03;0.80;;;6.00;99.90;;;;;;4954458;28;20536;-82
2022/11/03 04:47:12;;;;;;;4.60;1.37;;;6.00;99.90;;;;;;4954734;28;20431;-81
2022/11/03 04:49:38;;;;;;;4.00;1.20;;;6.00;99.90;;;;;;4954727;28;20423;-81
2022/11/03 04:52:16;;;;;;;1.87;0.63;;;6.00;99.90;;;;;;4954694;28;20426;-83
2022/11/03 04:54:42;;;;;;;1.77;0.70;;;5.90;99.90;;;;;;4954583;28;20182;-81
2022/11/03 04:57:11;;;;;;;1.83;0.97;;;6.00;99.90;;;;;;4954675;28;20441;-81
2022/11/03 04:59:37;;;;;;;2.90;0.63;;;5.90;99.90;;;;;;4954269;28;21002;-81
2022/11/03 05:02:08;;;;;;;2.27;0.70;;;6.00;99.90;;;;;;4954298;28;20528;-81
2022/11/03 05:04:33;;;;;;;1.83;1.17;;;6.00;99.90;;;;;;4954619;28;20257;-83
2022/11/03 05:06:59;;;;;;;3.37;1.40;;;6.00;99.90;;;;;;4954628;28;21037;-84
2022/11/03 05:09:30;;;;;;;2.63;1.13;;;5.90;99.90;;;;;;4954483;28;20185;-81
2022/11/03 05:11:55;;;;;;;5.93;1.10;;;5.90;99.90;;;;;;4954529;28;20181;-80
2022/11/03 05:14:26;;;;;;;2.57;0.70;;;5.90;99.90;;;;;;4954081;28;20879;-80
2022/11/03 05:16:54;;;;;;;5.47;0.60;;;5.90;99.90;;;;;;4954488;28;20170;-81
2022/11/03 05:19:35;;;;;;;3.87;0.90;;;5.90;99.90;;;;;;4954335;28;20837;-80
2022/11/03 05:22:03;;;;;;;5.03;1.00;;;5.90;99.90;;;;;;4954342;28;20477;-84
2022/11/03 05:24:29;;;;;;;6.80;0.70;;;5.80;99.90;;;;;;4954408;28;20514;-80
2022/11/03 05:26:57;;;;;;;3.60;0.47;;;5.80;99.90;;;;;;4954342;28;20947;-83
2022/11/03 05:29:28;;;;;;;2.27;1.13;;;5.80;99.90;;;;;;4953964;28;20474;-80
2022/11/03 05:31:54;;;;;;;5.37;1.23;;;5.90;99.90;;;;;;4954425;28;20479;-81
2022/11/03 05:34:29;;;;;;;3.90;0.67;;;5.80;99.90;;;;;;4954207;28;20495;-80
2022/11/03 05:36:59;;;;;;;1.90;0.73;;;5.80;99.90;;;;;;4956747;28;20427;-80
2022/11/03 05:39:36;;;;;;;1.47;0.60;;;5.90;99.90;;;;;;4957680;28;20456;-80
2022/11/03 05:42:27;;;;;;;3.30;1.07;;;5.80;99.90;;;;;;4957532;28;20481;-80
2022/11/03 05:44:52;;;;;;;10.63;0.93;;;5.90;99.90;;;;;;4957314;28;20419;-81
2022/11/03 05:47:21;;;;;;;4.60;1.37;;;5.90;99.90;;;;;;4957611;28;20415;-81
2022/11/03 05:49:49;;;;;;;3.27;1.20;;;5.80;99.90;;;;;;4957453;28;20545;-81
2022/11/03 05:52:25;;;;;;;4.80;1.53;;;5.80;99.90;;;;;;4957471;28;20419;-81
2022/11/03 05:54:53;;;;;;;1.80;0.73;;;5.90;99.90;;;;;;4957442;28;20959;-81
2022/11/03 05:57:19;;;;;;;4.27;1.27;;;5.90;99.90;;;;;;4957296;28;20426;-84
2022/11/03 05:59:47;;;;;;;9.93;1.40;;;5.80;99.90;;;;;;4957025;28;20407;-82
2022/11/03 06:02:34;;;;;;;2.37;0.70;;;5.80;99.90;;;;;;4957048;28;20775;-80
2022/11/03 06:05:01;;;;;;;1.30;0.50;;;5.90;99.90;;;;;;4957258;28;20413;-80
2022/11/03 06:07:29;;;;;;;4.07;1.10;;;5.80;99.90;;;;;;4957180;28;20427;-81
2022/11/03 06:09:54;;;;;;;3.27;1.17;;;5.90;99.90;;;;;;4957115;28;20411;-80
2022/11/03 06:12:21;;;;;;;4.50;1.37;;;5.90;99.90;;;;;;4957072;28;20937;-81
2022/11/03 06:14:47;;;;;;;3.20;1.40;;;5.90;99.90;;;;;;4956676;28;20412;-81
2022/11/03 06:17:23;;;;;;;2.43;1.30;;;5.90;99.90;;;;;;4956992;28;20444;-79
2022/11/03 06:19:52;;;;;;;7.87;0.90;;;6.00;99.90;;;;;;4956712;28;20562;-80
2022/11/03 06:22:25;;;;;;;5.17;2.27;;;6.00;99.90;;;;;;4956793;28;20474;-80
2022/11/03 06:24:54;;;;;;;3.17;1.00;;;6.00;99.90;;;;;;4956781;28;20921;-81
2022/11/03 06:27:25;;;;;;;7.17;1.50;;;6.00;99.90;;;;;;4956614;28;20429;-81
2022/11/03 06:29:56;;;;;;;1.87;0.60;;;6.00;99.90;;;;;;4956477;28;20445;-81
2022/11/03 06:32:21;;;;;;;6.77;1.50;;;6.10;99.90;;;;;;4956771;28;20417;-81
2022/11/03 06:34:56;;;;;;;6.10;2.03;;;6.10;99.90;;;;;;4956775;28;20437;-81
2022/11/03 06:37:25;;;;;;;1.10;0.47;;;6.20;99.90;;;;;;4956790;28;20253;-80
2022/11/03 06:39:57;;;;;;;2.90;1.27;;;6.20;99.90;;;;;;4956670;28;20443;-84
2022/11/03 06:42:22;;;;;;;4.80;1.87;;;6.20;99.90;;;;;;4956430;28;20520;-85
2022/11/03 06:44:50;;;;;;;2.83;1.13;;;6.30;99.90;;;;;;4956113;28;20450;-80
2022/11/03 06:47:23;;;;;;;5.40;1.80;;;6.30;99.90;;;;;;4955912;28;20169;-80
2022/11/03 06:49:57;;;;;;;1.37;0.77;;;6.30;99.90;;;;;;4956437;28;20423;-81
2022/11/03 06:52:28;;;;;;;4.90;1.77;;;6.40;99.90;;;;;;4956410;28;20566;-81
2022/11/03 06:55:05;;;;;;;4.20;2.27;;;6.40;99.90;;;;;;4955037;29;20421;-85
2022/11/03 06:57:41;;;;;;;6.60;2.40;;;6.50;99.90;;;;;;4956112;28;20523;-81
2022/11/03 07:00:27;;;;;;;4.70;1.50;;;6.50;99.90;;;;;;4956326;28;20404;-84
2022/11/03 07:03:12;;;;;;;3.20;2.07;;;6.70;99.90;;;;;;4955928;28;20490;-84
2022/11/03 07:05:38;;;;;;;5.60;3.50;;;6.80;99.90;;;;;;4956035;28;20416;-82
2022/11/03 07:08:30;;;;;;;6.50;1.40;;;6.90;99.90;;;;;;4955926;28;20470;-80
2022/11/03 07:11:13;;;;;;;4.17;0.90;;;7.00;99.90;;;;;;4955984;28;20507;-80
2022/11/03 07:13:40;;;;;;;7.20;1.40;;;7.20;99.90;;;;;;4955544;28;20949;-81
2022/11/03 07:16:31;;;;;;;6.20;1.07;;;7.30;99.90;;;;;;4955909;28;20421;-81
2022/11/03 07:19:04;;;;;;;8.33;1.40;;;7.40;99.90;;;;;;4948423;29;20434;-81
2022/11/03 07:21:35;;;;;;;4.93;1.33;;;7.50;99.90;;;;;;4955869;28;20507;-82
2022/11/03 07:24:04;;;;;;;5.10;0.60;;;7.60;99.90;;;;;;4955780;29;20470;-80
2022/11/03 07:26:34;;;;;;;7.70;0.83;;;7.60;99.90;;;;;;4955782;29;20795;-80
2022/11/03 07:29:00;;;;;;;13.80;1.83;;;7.70;99.90;;;;;;4955400;29;20430;-81
2022/11/03 07:31:26;;;;;;;0.77;0.30;;;7.70;99.90;;;;;;4955741;29;20421;-81
2022/11/03 07:33:57;;;;;;;6.23;1.50;;;7.80;99.90;;;;;;4955751;29;20474;-85
2022/11/03 07:36:24;;;;;;;3.57;1.47;;;7.80;99.90;;;;;;4955479;29;20210;-84
2022/11/03 07:38:52;;;;;;;3.03;0.80;;;7.80;99.90;;;;;;4955596;29;20424;-86
2022/11/03 07:41:21;;;;;;;3.67;0.67;;;7.80;99.90;;;;;;4955552;29;20458;-82
2022/11/03 07:43:52;;;;;;;2.30;0.60;;;7.90;99.90;;;;;;4955067;29;20496;-82
2022/11/03 07:46:21;;;;;;;4.00;0.90;;;7.90;99.90;;;;;;4955419;29;20481;-86
2022/11/03 07:48:49;;;;;;;5.63;0.57;;;8.00;99.90;;;;;;4955361;29;20443;-81
2022/11/03 07:51:19;;;;;;;3.60;0.47;;;8.00;99.90;;;;;;4955317;29;20523;-81
2022/11/03 07:53:46;;;;;;;4.20;0.40;;;8.10;99.90;;;;;;4955320;29;20439;-82
2022/11/03 07:56:27;;;;;;;2.07;0.70;;;8.10;99.90;;;;;;4955256;29;20423;-88
2022/11/03 07:58:58;;;;;;;3.83;1.47;;;8.20;99.90;;;;;;4954476;28;20511;-82
2022/11/03 08:01:30;;;;;;;5.03;0.70;;;8.30;99.90;;;;;;4954745;29;20490;-81
2022/11/03 08:04:20;;;;;;;3.10;0.63;;;8.30;99.90;;;;;;4955242;29;20427;-82
2022/11/03 08:06:47;;;;;;;1.97;0.50;;;8.40;99.90;;;;;;4952303;29;20909;-80
2022/11/03 08:09:12;;;;;;;3.90;0.80;;;8.50;99.90;;;;;;4955087;28;20411;-82
2022/11/03 08:11:38;;;;;;;2.07;0.80;;;8.50;99.90;;;;;;4955187;29;20537;-89
2022/11/03 08:14:04;;;;;;;8.67;0.80;;;8.60;99.90;;;;;;4954741;28;20180;-80
2022/11/03 08:16:29;;;;;;;3.37;0.57;;;8.70;99.90;;;;;;4955012;29;20179;-81
2022/11/03 08:18:55;;;;;;;6.50;1.40;;;8.70;99.90;;;;;;4954957;29;20636;-81
2022/11/03 08:21:20;;;;;;;3.60;0.83;;;8.70;99.90;;;;;;4954744;29;20564;-80
2022/11/03 08:23:46;;;;;;;3.00;0.60;;;8.80;99.90;;;;;;4954966;29;20174;-82
2022/11/03 08:26:11;;;;;;;1.93;0.77;;;8.80;99.90;;;;;;4954889;29;20178;-81
2022/11/03 08:28:37;;;;;;;5.30;1.13;;;8.90;99.90;;;;;;4954456;29;20666;-81
2022/11/03 08:31:04;;;;;;;3.50;0.47;;;9.00;99.90;;;;;;4954756;29;20204;-81
2022/11/03 08:33:34;;;;;;;1.20;0.60;;;9.10;99.90;;;;;;4954829;28;20259;-82
2022/11/03 08:36:01;;;;;;;3.03;0.30;;;9.30;99.90;;;;;;4954786;29;20511;-83
2022/11/03 08:38:26;;;;;;;0.50;0.20;;;9.40;99.90;;;;;;4954828;28;20418;-83
2022/11/03 08:40:53;;;;;;;2.57;0.80;;;9.50;99.90;;;;;;4954719;29;20484;-81
2022/11/03 08:43:18;;;;;;;2.30;0.40;;;9.50;99.90;;;;;;4954474;29;20194;-81
2022/11/03 08:45:44;;;;;;;0.83;0.33;;;9.50;99.90;;;;;;4954701;29;20409;-81
2022/11/03 08:48:10;;;;;;;4.37;0.77;;;9.60;99.90;;;;;;4954716;28;20171;-84
2022/11/03 08:50:35;;;;;;;3.50;0.60;;;9.60;99.90;;;;;;4954612;29;20411;-82
2022/11/03 08:53:01;;;;;;;3.53;0.40;;;9.60;99.90;;;;;;4954558;29;20178;-81
2022/11/03 08:55:26;;;;;;;3.77;0.80;;;9.90;99.90;;;;;;4954579;29;20196;-81
2022/11/03 08:57:52;;;;;;;4.83;2.20;;;10.00;99.90;;;;;;4954321;29;20171;-84
2022/11/03 09:00:17;;;;;;;8.17;0.70;;;10.10;98.00;;;;;;4954742;29;20670;-82
2022/11/03 09:02:44;;;;;;;1.97;0.33;;;10.10;99.90;;;;;;4954424;29;20278;-82
2022/11/03 09:05:11;;;;;;;2.67;0.80;;;10.10;77.60;;;;;;4954475;29;20170;-81
2022/11/03 09:07:38;;;;;;;2.97;0.80;;;10.10;90.40;;;;;;4954542;29;20789;-81
2022/11/03 09:10:05;;;;;;;5.30;0.40;;;10.00;99.90;;;;;;4955829;28;20426;-82
2022/11/03 09:12:30;;;;;;;1.83;0.47;;;10.00;99.90;;;;;;4956162;28;20435;-84
2022/11/03 09:14:56;;;;;;;8.13;0.93;;;9.90;99.90;;;;;;4959413;29;20428;-93
2022/11/03 09:17:21;;;;;;;1.53;0.43;;;10.00;99.90;;;;;;4960359;29;20179;-92
2022/11/03 09:19:47;;;;;;;2.63;1.03;;;10.10;99.90;;;;;;4959553;29;20170;-94
2022/11/03 09:22:15;;;;;;;4.40;1.03;;;10.20;99.90;;;;;;4960146;29;20283;-95
2022/11/03 09:24:40;;;;;;;5.97;1.60;;;10.20;99.90;;;;;;4958124;29;20175;-82
2022/11/03 09:27:06;;;;;;;2.87;0.40;;;10.20;99.90;;;;;;4957386;29;20991;-80
2022/11/03 09:29:31;;;;;;;2.17;0.57;;;10.30;99.90;;;;;;4959430;29;20176;-84
2022/11/03 09:31:57;;;;;;;1.27;0.40;;;10.40;75.90;;;;;;4958315;29;20174;-82
2022/11/03 09:34:23;;;;;;;4.23;0.60;;;10.60;43.40;;;;;;4957930;28;20191;-86
2022/11/03 09:36:48;;;;;;;7.60;0.53;;;10.90;1.00;;;;;;4960902;29;20592;-95
2022/11/03 09:39:14;;;;;;;6.03;0.83;;;11.40;1.00;;;;;;4960937;29;20180;-85
2022/11/03 09:41:39;;;;;;;4.30;0.83;;;11.70;99.90;;;;;;4959392;29;20288;-82
2022/11/03 09:44:05;;;;;;;5.27;0.70;;;11.60;1.00;;;;;;4961279;28;20165;-83
2022/11/03 09:46:33;;;;;;;2.53;0.30;;;11.50;1.00;;;;;;4960100;28;20176;-83
2022/11/03 09:49:00;;;;;;;4.17;1.07;;;11.30;1.00;;;;;;4960952;29;20192;-82
2022/11/03 09:51:27;;;;;;;3.47;0.80;;;11.50;1.00;;;;;;4958973;29;20412;-83
2022/11/03 09:53:55;;;;;;;3.87;0.60;;;12.10;99.90;;;;;;4958769;29;21049;-84
2022/11/03 09:56:23;;;;;;;2.67;0.60;;;12.70;99.90;;;;;;4958203;29;20414;-84
2022/11/03 09:58:51;;;;;;;4.33;0.73;;;13.50;99.90;;;;;;4956383;29;20648;-90
2022/11/03 10:01:17;;;;;;;5.80;0.60;;;13.60;99.90;;;;;;4956356;29;20467;-82
2022/11/03 10:03:43;;;;;;;2.30;0.30;;;14.20;1.00;;;;;;4956364;29;20437;-82
2022/11/03 10:06:08;;;;;;;1.90;0.20;;;14.10;1.00;;;;;;4956449;29;20177;-82
2022/11/03 10:08:36;;;;;;;3.33;0.40;;;14.60;99.90;;;;;;4957153;29;20423;-82
2022/11/03 10:11:05;;;;;;;2.70;0.30;;;15.30;1.00;;;;;;4957945;29;20599;-81
2022/11/03 10:13:38;;;;;;;3.27;0.50;;;15.40;1.00;;;;;;4956004;28;20443;-79
2022/11/03 10:16:10;;;;;;;2.30;0.67;;;15.40;1.00;;;;;;4957607;29;20466;-78
2022/11/03 10:18:36;;;;;;;1.37;0.40;;;15.70;1.00;;;;;;4957174;29;20451;-85
2022/11/03 10:21:13;;;;;;;4.33;0.50;;;15.70;1.00;;;;;;4956630;28;20548;-78
2022/11/03 10:23:41;;;;;;;1.70;0.30;;;16.10;99.90;;;;;;4957191;29;20428;-80
2022/11/03 10:26:15;;;;;;;2.00;0.40;;;15.80;99.90;;;;;;4956987;29;20419;-79
2022/11/03 10:29:03;;;;;;;1.63;0.40;;;15.90;99.90;;;;;;4956782;29;20430;-89
2022/11/03 10:31:34;;;;;;;3.60;0.30;;;16.20;99.90;;;;;;4957106;29;20422;-87
2022/11/03 10:34:00;;;;;;;3.70;0.50;;;15.80;99.90;;;;;;4957146;29;20902;-80
2022/11/03 10:36:28;;;;;;;2.13;0.40;;;15.40;99.90;;;;;;4957102;29;20432;-79
2022/11/03 10:38:54;;;;;;;2.57;0.63;;;14.90;1.00;;;;;;4956726;29;20181;-83
2022/11/03 10:41:21;;;;;;;3.43;0.50;;;14.60;1.00;;;;;;4956859;29;20464;-78
2022/11/03 10:44:04;;;;;;;3.00;0.20;;;14.50;99.90;;;;;;4956336;29;20971;-83
2022/11/03 10:46:35;;;;;;;4.30;0.30;;;14.40;99.90;;;;;;4956457;29;20448;-92
2022/11/03 10:49:17;;;;;;;3.10;0.40;;;14.40;99.90;;;;;;4956617;29;20530;-86
2022/11/03 10:51:45;;;;;;;4.27;0.40;;;14.30;99.90;;;;;;4956362;29;20501;-80
2022/11/03 10:54:15;;;;;;;3.23;0.70;;;14.20;1.00;;;;;;4956892;29;20854;-85
2022/11/03 10:56:41;;;;;;;5.20;0.67;;;14.20;1.00;;;;;;4956581;29;20773;-82
2022/11/03 10:59:26;;;;;;;4.57;0.70;;;14.10;1.00;;;;;;4959881;28;20517;-81
2022/11/03 11:01:51;;;;;;;3.80;0.33;;;14.10;1.00;;;;;;4955928;28;20483;-80
2022/11/03 11:04:18;;;;;;;4.50;0.40;;;14.20;1.00;;;;;;4956243;28;20428;-83
2022/11/03 11:06:45;;;;;;;3.70;0.50;;;14.40;1.00;;;;;;4956099;29;20649;-81
2022/11/03 11:09:13;;;;;;;3.10;0.70;;;14.70;99.90;;;;;;4955924;29;20425;-80
2022/11/03 11:11:38;;;;;;;5.70;0.73;;;14.70;99.90;;;;;;4956243;29;20419;-85
2022/11/03 11:14:27;;;;;;;4.93;0.47;;;15.00;1.00;;;;;;4955943;29;20921;-83
2022/11/03 11:16:57;;;;;;;1.60;0.27;;;14.90;99.90;;;;;;4956259;28;20180;-91
2022/11/03 11:19:25;;;;;;;2.10;0.30;;;14.80;99.90;;;;;;4956387;29;20492;-81
2022/11/03 11:21:53;;;;;;;3.57;0.60;;;14.70;96.50;;;;;;4957362;28;20482;-94
2022/11/03 11:24:43;;;;;;;2.63;0.20;;;14.30;1.00;;;;;;4956717;28;20431;-80
2022/11/03 11:27:31;;;;;;;2.97;0.40;;;14.40;1.00;;;;;;4955886;28;20464;-92
2022/11/03 11:29:57;;;;;;;1.47;0.83;;;14.60;95.00;;;;;;4956415;28;20414;-92
2022/11/03 11:32:38;;;;;;;2.20;1.13;;;14.80;1.00;;;;;;4956868;28;20429;-89
2022/11/03 11:35:06;;;;;;;2.40;0.30;;;14.80;1.00;;;;;;4957144;28;20425;-84
2022/11/03 11:37:34;;;;;;;1.93;0.30;;;14.80;1.00;;;;;;4953202;28;20428;-86
2022/11/03 11:40:00;;;;;;;3.57;0.47;;;14.60;1.00;;;;;;4953330;28;20434;-88
2022/11/03 11:42:26;;;;;;;1.03;0.30;;;14.50;1.90;;;;;;4954208;29;20469;-82
2022/11/03 11:44:55;;;;;;;1.97;0.47;;;14.30;99.90;;;;;;4955188;29;20786;-90
2022/11/03 11:47:39;;;;;;;1.63;0.47;;;14.60;99.90;;;;;;4955098;28;20178;-81
2022/11/03 11:50:04;;;;;;;2.40;0.40;;;14.60;99.90;;;;;;4953869;29;20815;-82
2022/11/03 11:52:36;;;;;;;4.83;0.43;;;14.50;99.90;;;;;;4954291;29;20485;-86
2022/11/03 11:55:03;;;;;;;3.20;0.53;;;14.60;1.00;;;;;;4954179;29;20167;-87
2022/11/03 11:57:33;;;;;;;5.10;0.73;;;14.60;1.00;;;;;;4953691;29;20427;-89
2022/11/03 11:59:59;;;;;;;2.33;0.47;;;14.50;99.90;;;;;;4954373;29;20511;-82
2022/11/03 12:02:29;;;;;;;4.77;1.07;;;14.50;99.90;;;;;;4954369;29;20571;-83
2022/11/03 12:05:03;;;;;;;3.63;0.80;;;14.60;99.90;;;;;;4954847;29;20643;-85
2022/11/03 12:07:35;;;;;;;2.97;0.40;;;14.70;99.90;;;;;;4955076;29;20427;-81
2022/11/03 12:10:08;;;;;;;4.63;0.83;;;14.70;99.90;;;;;;4954928;29;21154;-86
2022/11/03 12:12:34;;;;;;;2.63;0.53;;;14.60;99.90;;;;;;4954626;29;20787;-80
2022/11/03 12:14:59;;;;;;;3.27;0.40;;;14.40;1.00;;;;;;4954876;29;20455;-81
2022/11/03 12:17:25;;;;;;;1.77;0.40;;;14.40;1.00;;;;;;4954821;29;20550;-85
2022/11/03 12:19:52;;;;;;;0.80;0.20;;;14.30;99.90;;;;;;4954762;29;20647;-84
2022/11/03 12:22:23;;;;;;;3.50;1.03;;;14.40;1.00;;;;;;4952078;28;20222;-82
2022/11/03 12:24:51;;;;;;;2.50;0.87;;;14.40;1.00;;;;;;4953321;29;20566;-84
2022/11/03 12:27:41;;;;;;;1.07;0.30;;;14.50;1.00;;;;;;4953230;29;20406;-81
2022/11/03 12:30:15;;;;;;;2.70;0.40;;;14.50;1.00;;;;;;4953400;29;20825;-82
2022/11/03 12:32:41;;;;;;;3.50;0.37;;;14.60;1.00;;;;;;4953399;29;20416;-82
2022/11/03 12:35:08;;;;;;;4.63;0.50;;;14.70;7.00;;;;;;4953792;29;20413;-89
2022/11/03 12:37:33;;;;;;;2.67;0.57;;;14.70;99.90;;;;;;4953543;29;20600;-85
2022/11/03 12:39:59;;;;;;;1.23;0.27;;;14.70;1.00;;;;;;4954183;29;20485;-80
2022/11/03 12:42:24;;;;;;;3.77;0.50;;;14.70;1.00;;;;;;4953808;28;20244;-84
2022/11/03 12:44:50;;;;;;;2.43;0.30;;;14.60;22.40;;;;;;4956108;28;20176;-86
2022/11/03 12:47:16;;;;;;;5.90;0.57;;;14.60;1.00;;;;;;4958094;29;20251;-79
2022/11/03 12:49:41;;;;;;;2.30;0.70;;;14.50;34.90;;;;;;4957835;29;20714;-80
2022/11/03 12:52:07;;;;;;;3.17;0.50;;;14.40;1.00;;;;;;4958474;29;20306;-85
2022/11/03 12:54:33;;;;;;;2.00;0.30;;;14.40;2.50;;;;;;4958264;29;20181;-91
2022/11/03 12:57:01;;;;;;;2.97;0.50;;;14.30;99.90;;;;;;4957302;28;20255;-86
2022/11/03 12:59:27;;;;;;;2.10;0.47;;;14.30;1.00;;;;;;4957035;29;20163;-85
2022/11/03 13:01:52;;;;;;;3.17;0.70;;;14.20;99.90;;;;;;4956864;29;20948;-89
2022/11/03 13:04:18;;;;;;;3.03;0.50;;;14.20;99.90;;;;;;4957374;29;20209;-85
2022/11/03 13:06:43;;;;;;;1.90;0.50;;;14.20;1.00;;;;;;4957441;29;20190;-82
2022/11/03 13:09:09;;;;;;;4.23;1.00;;;14.20;1.00;;;;;;4957303;29;20214;-85
2022/11/03 13:14:18;;;;;;;1.00;0.30;;;14.00;1.00;;;;;;4959331;29;20239;-89
2022/11/03 13:16:44;;;;;;;2.20;0.50;;;13.90;99.90;;;;;;4958873;28;20801;-82
2022/11/03 13:19:09;;;;;;;2.00;0.50;;;13.70;1.00;;;;;;4957971;29;20709;-84
2022/11/03 13:21:36;;;;;;;1.40;0.30;;;13.80;1.00;;;;;;4957739;29;20226;-81
2022/11/03 13:24:01;;;;;;;4.80;0.40;;;13.70;99.90;;;;;;4957564;28;20647;-80
2022/11/03 13:26:27;;;;;;;5.10;0.87;;;13.70;99.90;;;;;;4957424;29;20423;-84
2022/11/03 13:28:52;;;;;;;3.83;0.77;;;13.70;99.90;;;;;;4957663;29;20177;-83